sensor_id;sensor_type;location;lat;lon;timestamp;P1;durP1;ratioP1;P2;durP2;ratioP2
58097;SDS011;43913;55.940;37.504;2023-03-03T00:01:02;1.70;;;1.60;;
58097;SDS011;43913;55.940;37.504;2023-03-03T00:03:28;3.10;;;1.40;;
58097;SDS011;43913;55.940;37.504;2023-03-03T00:05:54;2.17;;;1.48;;
58097;SDS011;43913;55.940;37.504;2023-03-03T00:08:20;2.38;;;1.75;;
58097;SDS011;43913;55.940;37.504;2023-03-03T00:10:47;4.45;;;1.83;;
58097;SDS011;43913;55.940;37.504;2023-03-03T00:13:20;5.57;;;1.50;;
58097;SDS011;43913;55.940;37.504;2023-03-03T00:15:47;3.85;;;1.60;;
58097;SDS011;43913;55.940;37.504;2023-03-03T00:18:35;1.80;;;1.50;;
58097;SDS011;43913;55.940;37.504;2023-03-03T00:21:00;2.97;;;1.73;;
58097;SDS011;43913;55.940;37.504;2023-03-03T00:23:34;3.60;;;1.63;;
58097;SDS011;43913;55.940;37.504;2023-03-03T00:26:03;2.17;;;1.80;;
58097;SDS011;43913;55.940;37.504;2023-03-03T00:28:46;2.60;;;1.60;;
58097;SDS011;43913;55.940;37.504;2023-03-03T00:31:15;2.10;;;1.60;;
58097;SDS011;43913;55.940;37.504;2023-03-03T00:33:50;3.22;;;1.40;;
58097;SDS011;43913;55.940;37.504;2023-03-03T00:39:38;3.40;;;1.40;;
58097;SDS011;43913;55.940;37.504;2023-03-03T00:41:55;3.53;;;1.60;;
58097;SDS011;43913;55.940;37.504;2023-03-03T00:49:41;2.85;;;1.50;;
58097;SDS011;43913;55.940;37.504;2023-03-03T00:52:13;4.55;;;2.38;;
58097;SDS011;43913;55.940;37.504;2023-03-03T00:54:41;4.30;;;1.80;;
58097;SDS011;43913;55.940;37.504;2023-03-03T00:57:07;1.85;;;1.63;;
58097;SDS011;43913;55.940;37.504;2023-03-03T00:59:33;2.20;;;1.20;;
58097;SDS011;43913;55.940;37.504;2023-03-03T01:01:59;3.55;;;1.50;;
58097;SDS011;43913;55.940;37.504;2023-03-03T01:04:25;3.85;;;1.92;;
58097;SDS011;43913;55.940;37.504;2023-03-03T01:06:51;3.70;;;1.48;;
58097;SDS011;43913;55.940;37.504;2023-03-03T01:09:16;4.35;;;1.65;;
58097;SDS011;43913;55.940;37.504;2023-03-03T01:11:42;4.28;;;1.85;;
58097;SDS011;43913;55.940;37.504;2023-03-03T01:14:08;2.45;;;1.58;;
58097;SDS011;43913;55.940;37.504;2023-03-03T01:16:33;3.28;;;1.75;;
58097;SDS011;43913;55.940;37.504;2023-03-03T01:18:59;1.95;;;1.48;;
58097;SDS011;43913;55.940;37.504;2023-03-03T01:21:25;5.72;;;1.88;;
58097;SDS011;43913;55.940;37.504;2023-03-03T01:23:51;4.97;;;2.05;;
58097;SDS011;43913;55.940;37.504;2023-03-03T01:26:17;3.92;;;1.98;;
58097;SDS011;43913;55.940;37.504;2023-03-03T01:28:42;3.20;;;1.45;;
58097;SDS011;43913;55.940;37.504;2023-03-03T01:31:08;3.35;;;1.40;;
58097;SDS011;43913;55.940;37.504;2023-03-03T01:33:35;3.30;;;1.60;;
58097;SDS011;43913;55.940;37.504;2023-03-03T01:36:01;4.40;;;1.70;;
58097;SDS011;43913;55.940;37.504;2023-03-03T01:38:27;3.30;;;1.80;;
58097;SDS011;43913;55.940;37.504;2023-03-03T01:40:54;4.88;;;2.65;;
58097;SDS011;43913;55.940;37.504;2023-03-03T01:43:21;3.08;;;1.67;;
58097;SDS011;43913;55.940;37.504;2023-03-03T01:48:15;4.20;;;1.67;;
58097;SDS011;43913;55.940;37.504;2023-03-03T01:56:07;2.50;;;2.08;;
58097;SDS011;43913;55.940;37.504;2023-03-03T01:58:34;3.03;;;1.50;;
58097;SDS011;43913;55.940;37.504;2023-03-03T02:01:01;5.25;;;1.73;;
58097;SDS011;43913;55.940;37.504;2023-03-03T02:03:29;3.85;;;2.05;;
58097;SDS011;43913;55.940;37.504;2023-03-03T02:05:56;4.00;;;2.25;;
58097;SDS011;43913;55.940;37.504;2023-03-03T02:08:27;3.08;;;1.88;;
58097;SDS011;43913;55.940;37.504;2023-03-03T02:10:58;5.40;;;1.70;;
58097;SDS011;43913;55.940;37.504;2023-03-03T02:13:25;6.82;;;2.35;;
58097;SDS011;43913;55.940;37.504;2023-03-03T02:15:53;2.35;;;1.50;;
58097;SDS011;43913;55.940;37.504;2023-03-03T02:18:20;4.82;;;2.10;;
58097;SDS011;43913;55.940;37.504;2023-03-03T02:21:01;3.13;;;1.95;;
58097;SDS011;43913;55.940;37.504;2023-03-03T02:23:34;7.22;;;2.22;;
58097;SDS011;43913;55.940;37.504;2023-03-03T02:26:06;6.57;;;2.00;;
58097;SDS011;43913;55.940;37.504;2023-03-03T02:28:33;4.53;;;1.70;;
58097;SDS011;43913;55.940;37.504;2023-03-03T02:31:05;4.25;;;1.95;;
58097;SDS011;43913;55.940;37.504;2023-03-03T02:33:32;2.88;;;1.73;;
58097;SDS011;43913;55.940;37.504;2023-03-03T02:35:58;3.88;;;2.08;;
58097;SDS011;43913;55.940;37.504;2023-03-03T02:41:43;5.30;;;2.25;;
58097;SDS011;43913;55.940;37.504;2023-03-03T02:44:03;3.13;;;1.63;;
58097;SDS011;43913;55.940;37.504;2023-03-03T02:46:37;3.80;;;1.88;;
58097;SDS011;43913;55.940;37.504;2023-03-03T02:49:05;3.10;;;1.67;;
58097;SDS011;43913;55.940;37.504;2023-03-03T02:51:32;3.75;;;1.92;;
58097;SDS011;43913;55.940;37.504;2023-03-03T02:53:59;5.32;;;2.03;;
58097;SDS011;43913;55.940;37.504;2023-03-03T02:56:28;5.13;;;1.95;;
58097;SDS011;43913;55.940;37.504;2023-03-03T02:58:53;2.85;;;1.70;;
58097;SDS011;43913;55.940;37.504;2023-03-03T03:01:20;3.72;;;1.67;;
58097;SDS011;43913;55.940;37.504;2023-03-03T03:03:47;2.78;;;1.60;;
58097;SDS011;43913;55.940;37.504;2023-03-03T03:06:16;3.38;;;1.90;;
58097;SDS011;43913;55.940;37.504;2023-03-03T03:08:42;2.85;;;1.63;;
58097;SDS011;43913;55.940;37.504;2023-03-03T03:11:07;3.30;;;1.88;;
58097;SDS011;43913;55.940;37.504;2023-03-03T03:13:33;3.47;;;2.10;;
58097;SDS011;43913;55.940;37.504;2023-03-03T03:15:59;4.45;;;2.22;;
58097;SDS011;43913;55.940;37.504;2023-03-03T03:18:25;4.38;;;3.15;;
58097;SDS011;43913;55.940;37.504;2023-03-03T03:20:53;5.60;;;1.95;;
58097;SDS011;43913;55.940;37.504;2023-03-03T03:23:19;3.83;;;1.95;;
58097;SDS011;43913;55.940;37.504;2023-03-03T03:25:46;3.40;;;2.10;;
58097;SDS011;43913;55.940;37.504;2023-03-03T03:28:19;3.15;;;1.52;;
58097;SDS011;43913;55.940;37.504;2023-03-03T03:30:45;1.95;;;1.38;;
58097;SDS011;43913;55.940;37.504;2023-03-03T03:33:11;3.85;;;1.88;;
58097;SDS011;43913;55.940;37.504;2023-03-03T03:35:38;3.40;;;2.10;;
58097;SDS011;43913;55.940;37.504;2023-03-03T03:38:10;3.25;;;1.67;;
58097;SDS011;43913;55.940;37.504;2023-03-03T03:40:36;4.53;;;1.85;;
58097;SDS011;43913;55.940;37.504;2023-03-03T03:43:02;2.20;;;1.58;;
58097;SDS011;43913;55.940;37.504;2023-03-03T03:45:29;5.32;;;2.20;;
58097;SDS011;43913;55.940;37.504;2023-03-03T03:47:54;2.50;;;1.65;;
58097;SDS011;43913;55.940;37.504;2023-03-03T03:50:20;4.53;;;1.95;;
58097;SDS011;43913;55.940;37.504;2023-03-03T03:52:46;1.63;;;1.48;;
58097;SDS011;43913;55.940;37.504;2023-03-03T03:55:12;1.77;;;1.42;;
58097;SDS011;43913;55.940;37.504;2023-03-03T03:57:40;4.13;;;2.20;;
58097;SDS011;43913;55.940;37.504;2023-03-03T04:00:06;7.00;;;2.45;;
58097;SDS011;43913;55.940;37.504;2023-03-03T04:02:39;5.43;;;2.03;;
58097;SDS011;43913;55.940;37.504;2023-03-03T04:05:06;3.03;;;1.67;;
58097;SDS011;43913;55.940;37.504;2023-03-03T04:07:33;5.25;;;1.80;;
58097;SDS011;43913;55.940;37.504;2023-03-03T04:09:59;4.07;;;2.15;;
58097;SDS011;43913;55.940;37.504;2023-03-03T04:12:25;4.50;;;1.60;;
58097;SDS011;43913;55.940;37.504;2023-03-03T04:14:51;3.40;;;1.95;;
58097;SDS011;43913;55.940;37.504;2023-03-03T04:17:21;5.28;;;1.77;;
58097;SDS011;43913;55.940;37.504;2023-03-03T04:19:51;5.50;;;2.00;;
58097;SDS011;43913;55.940;37.504;2023-03-03T04:22:17;4.22;;;2.13;;
58097;SDS011;43913;55.940;37.504;2023-03-03T04:24:43;4.80;;;2.53;;
58097;SDS011;43913;55.940;37.504;2023-03-03T04:27:10;4.65;;;2.08;;
58097;SDS011;43913;55.940;37.504;2023-03-03T04:29:37;3.72;;;2.22;;
58097;SDS011;43913;55.940;37.504;2023-03-03T04:32:03;3.10;;;1.88;;
58097;SDS011;43913;55.940;37.504;2023-03-03T04:34:31;2.92;;;2.22;;
58097;SDS011;43913;55.940;37.504;2023-03-03T04:36:56;2.40;;;1.75;;
58097;SDS011;43913;55.940;37.504;2023-03-03T04:39:22;5.10;;;2.35;;
58097;SDS011;43913;55.940;37.504;2023-03-03T04:41:48;2.42;;;1.67;;
58097;SDS011;43913;55.940;37.504;2023-03-03T04:44:14;2.42;;;1.60;;
58097;SDS011;43913;55.940;37.504;2023-03-03T04:46:39;3.08;;;2.22;;
58097;SDS011;43913;55.940;37.504;2023-03-03T04:49:05;3.03;;;1.65;;
58097;SDS011;43913;55.940;37.504;2023-03-03T04:51:33;3.28;;;2.10;;
58097;SDS011;43913;55.940;37.504;2023-03-03T04:54:05;4.97;;;2.45;;
58097;SDS011;43913;55.940;37.504;2023-03-03T04:56:30;2.72;;;2.05;;
58097;SDS011;43913;55.940;37.504;2023-03-03T04:58:56;4.80;;;2.17;;
58097;SDS011;43913;55.940;37.504;2023-03-03T05:01:22;6.45;;;2.22;;
58097;SDS011;43913;55.940;37.504;2023-03-03T05:03:48;3.35;;;1.80;;
58097;SDS011;43913;55.940;37.504;2023-03-03T05:06:14;3.88;;;2.17;;
58097;SDS011;43913;55.940;37.504;2023-03-03T05:08:40;2.70;;;1.85;;
58097;SDS011;43913;55.940;37.504;2023-03-03T05:11:07;3.80;;;2.13;;
58097;SDS011;43913;55.940;37.504;2023-03-03T05:13:33;3.78;;;1.70;;
58097;SDS011;43913;55.940;37.504;2023-03-03T05:15:58;2.45;;;1.95;;
58097;SDS011;43913;55.940;37.504;2023-03-03T05:18:24;3.53;;;2.00;;
58097;SDS011;43913;55.940;37.504;2023-03-03T05:20:51;4.22;;;2.33;;
58097;SDS011;43913;55.940;37.504;2023-03-03T05:23:17;4.38;;;1.90;;
58097;SDS011;43913;55.940;37.504;2023-03-03T05:25:43;8.00;;;2.75;;
58097;SDS011;43913;55.940;37.504;2023-03-03T05:28:11;5.22;;;3.28;;
58097;SDS011;43913;55.940;37.504;2023-03-03T05:30:37;8.40;;;3.20;;
58097;SDS011;43913;55.940;37.504;2023-03-03T05:33:03;6.30;;;2.45;;
58097;SDS011;43913;55.940;37.504;2023-03-03T05:35:29;4.80;;;2.13;;
58097;SDS011;43913;55.940;37.504;2023-03-03T05:37:55;5.38;;;2.25;;
58097;SDS011;43913;55.940;37.504;2023-03-03T05:40:23;12.82;;;2.47;;
58097;SDS011;43913;55.940;37.504;2023-03-03T05:42:49;5.05;;;2.85;;
58097;SDS011;43913;55.940;37.504;2023-03-03T05:45:15;6.80;;;2.55;;
58097;SDS011;43913;55.940;37.504;2023-03-03T05:47:44;4.82;;;2.85;;
58097;SDS011;43913;55.940;37.504;2023-03-03T05:50:11;3.50;;;1.70;;
58097;SDS011;43913;55.940;37.504;2023-03-03T05:52:36;3.67;;;2.22;;
58097;SDS011;43913;55.940;37.504;2023-03-03T05:55:02;5.32;;;2.47;;
58097;SDS011;43913;55.940;37.504;2023-03-03T05:57:29;5.57;;;2.08;;
58097;SDS011;43913;55.940;37.504;2023-03-03T05:59:54;5.75;;;2.30;;
58097;SDS011;43913;55.940;37.504;2023-03-03T06:02:20;4.85;;;2.05;;
58097;SDS011;43913;55.940;37.504;2023-03-03T06:04:46;9.05;;;1.92;;
58097;SDS011;43913;55.940;37.504;2023-03-03T06:07:11;6.47;;;2.55;;
58097;SDS011;43913;55.940;37.504;2023-03-03T06:09:37;5.22;;;1.92;;
58097;SDS011;43913;55.940;37.504;2023-03-03T06:12:03;6.20;;;2.38;;
58097;SDS011;43913;55.940;37.504;2023-03-03T06:14:29;3.78;;;1.80;;
58097;SDS011;43913;55.940;37.504;2023-03-03T06:16:54;5.65;;;2.38;;
58097;SDS011;43913;55.940;37.504;2023-03-03T06:19:22;7.03;;;3.22;;
58097;SDS011;43913;55.940;37.504;2023-03-03T06:21:48;5.47;;;1.70;;
58097;SDS011;43913;55.940;37.504;2023-03-03T06:24:14;4.53;;;2.22;;
58097;SDS011;43913;55.940;37.504;2023-03-03T06:26:40;7.72;;;1.88;;
58097;SDS011;43913;55.940;37.504;2023-03-03T06:29:06;6.70;;;2.20;;
58097;SDS011;43913;55.940;37.504;2023-03-03T06:31:32;5.75;;;3.03;;
58097;SDS011;43913;55.940;37.504;2023-03-03T06:33:57;5.65;;;2.28;;
58097;SDS011;43913;55.940;37.504;2023-03-03T06:36:23;6.30;;;2.40;;
58097;SDS011;43913;55.940;37.504;2023-03-03T06:38:50;5.05;;;2.20;;
58097;SDS011;43913;55.940;37.504;2023-03-03T06:41:16;5.20;;;2.45;;
58097;SDS011;43913;55.940;37.504;2023-03-03T06:43:41;8.13;;;2.15;;
58097;SDS011;43913;55.940;37.504;2023-03-03T06:46:07;4.50;;;1.88;;
58097;SDS011;43913;55.940;37.504;2023-03-03T06:48:33;6.90;;;2.00;;
58097;SDS011;43913;55.940;37.504;2023-03-03T06:50:59;4.28;;;1.90;;
58097;SDS011;43913;55.940;37.504;2023-03-03T06:53:27;3.40;;;1.50;;
58097;SDS011;43913;55.940;37.504;2023-03-03T06:55:53;6.10;;;1.65;;
58097;SDS011;43913;55.940;37.504;2023-03-03T06:58:20;4.22;;;1.88;;
58097;SDS011;43913;55.940;37.504;2023-03-03T07:00:53;6.45;;;2.55;;
58097;SDS011;43913;55.940;37.504;2023-03-03T07:03:23;6.53;;;2.08;;
58097;SDS011;43913;55.940;37.504;2023-03-03T07:05:52;5.07;;;1.73;;
58097;SDS011;43913;55.940;37.504;2023-03-03T07:08:19;7.20;;;1.80;;
58097;SDS011;43913;55.940;37.504;2023-03-03T07:10:47;5.00;;;1.98;;
58097;SDS011;43913;55.940;37.504;2023-03-03T07:15:39;3.28;;;1.88;;
58097;SDS011;43913;55.940;37.504;2023-03-03T07:18:05;3.30;;;1.90;;
58097;SDS011;43913;55.940;37.504;2023-03-03T07:20:46;5.25;;;2.00;;
58097;SDS011;43913;55.940;37.504;2023-03-03T07:23:20;3.65;;;1.70;;
58097;SDS011;43913;55.940;37.504;2023-03-03T07:25:51;6.15;;;2.25;;
58097;SDS011;43913;55.940;37.504;2023-03-03T07:28:29;5.93;;;2.35;;
58097;SDS011;43913;55.940;37.504;2023-03-03T07:30:57;5.38;;;2.85;;
58097;SDS011;43913;55.940;37.504;2023-03-03T07:33:30;5.43;;;2.20;;
58097;SDS011;43913;55.940;37.504;2023-03-03T07:36:00;5.63;;;2.73;;
58097;SDS011;43913;55.940;37.504;2023-03-03T07:41:00;6.10;;;2.28;;
58097;SDS011;43913;55.940;37.504;2023-03-03T07:48:38;6.28;;;2.35;;
58097;SDS011;43913;55.940;37.504;2023-03-03T07:51:15;5.93;;;2.13;;
58097;SDS011;43913;55.940;37.504;2023-03-03T07:53:43;4.82;;;2.50;;
58097;SDS011;43913;55.940;37.504;2023-03-03T07:56:21;5.57;;;2.38;;
58097;SDS011;43913;55.940;37.504;2023-03-03T07:58:53;4.07;;;1.83;;
58097;SDS011;43913;55.940;37.504;2023-03-03T08:01:37;5.35;;;2.50;;
58097;SDS011;43913;55.940;37.504;2023-03-03T08:04:17;6.88;;;2.47;;
58097;SDS011;43913;55.940;37.504;2023-03-03T08:06:59;6.35;;;2.33;;
58097;SDS011;43913;55.940;37.504;2023-03-03T08:09:28;9.57;;;2.78;;
58097;SDS011;43913;55.940;37.504;2023-03-03T08:12:11;5.28;;;2.63;;
58097;SDS011;43913;55.940;37.504;2023-03-03T08:15:11;7.15;;;2.50;;
58097;SDS011;43913;55.940;37.504;2023-03-03T08:17:42;4.50;;;2.22;;
58097;SDS011;43913;55.940;37.504;2023-03-03T08:20:54;6.18;;;2.60;;
58097;SDS011;43913;55.940;37.504;2023-03-03T08:22:54;5.22;;;2.38;;
58097;SDS011;43913;55.940;37.504;2023-03-03T08:25:19;4.45;;;2.20;;
58097;SDS011;43913;55.940;37.504;2023-03-03T08:27:45;5.78;;;2.13;;
58097;SDS011;43913;55.940;37.504;2023-03-03T08:30:11;4.13;;;2.30;;
58097;SDS011;43913;55.940;37.504;2023-03-03T08:32:37;5.28;;;2.28;;
58097;SDS011;43913;55.940;37.504;2023-03-03T08:35:02;5.38;;;2.20;;
58097;SDS011;43913;55.940;37.504;2023-03-03T08:37:28;6.47;;;2.47;;
58097;SDS011;43913;55.940;37.504;2023-03-03T08:39:54;6.05;;;2.28;;
58097;SDS011;43913;55.940;37.504;2023-03-03T08:42:20;4.97;;;2.20;;
58097;SDS011;43913;55.940;37.504;2023-03-03T08:44:45;7.85;;;2.40;;
58097;SDS011;43913;55.940;37.504;2023-03-03T08:47:11;4.25;;;1.88;;
58097;SDS011;43913;55.940;37.504;2023-03-03T08:49:36;7.32;;;3.13;;
58097;SDS011;43913;55.940;37.504;2023-03-03T08:52:02;6.55;;;2.83;;
58097;SDS011;43913;55.940;37.504;2023-03-03T08:54:28;3.72;;;2.45;;
58097;SDS011;43913;55.940;37.504;2023-03-03T08:56:55;6.93;;;2.65;;
58097;SDS011;43913;55.940;37.504;2023-03-03T08:59:21;5.80;;;2.47;;
58097;SDS011;43913;55.940;37.504;2023-03-03T09:01:47;5.35;;;2.20;;
58097;SDS011;43913;55.940;37.504;2023-03-03T09:04:13;3.22;;;2.33;;
58097;SDS011;43913;55.940;37.504;2023-03-03T09:06:38;5.18;;;2.30;;
58097;SDS011;43913;55.940;37.504;2023-03-03T09:09:04;3.95;;;2.83;;
58097;SDS011;43913;55.940;37.504;2023-03-03T09:11:30;5.43;;;2.88;;
58097;SDS011;43913;55.940;37.504;2023-03-03T09:14:10;5.60;;;2.45;;
58097;SDS011;43913;55.940;37.504;2023-03-03T09:16:38;5.72;;;2.38;;
58097;SDS011;43913;55.940;37.504;2023-03-03T09:19:31;5.53;;;2.13;;
58097;SDS011;43913;55.940;37.504;2023-03-03T09:22:10;6.32;;;2.65;;
58097;SDS011;43913;55.940;37.504;2023-03-03T09:24:41;4.93;;;3.00;;
58097;SDS011;43913;55.940;37.504;2023-03-03T09:29:53;3.05;;;2.03;;
58097;SDS011;43913;55.940;37.504;2023-03-03T09:34:50;3.22;;;2.22;;
58097;SDS011;43913;55.940;37.504;2023-03-03T09:39:49;3.20;;;1.70;;
58097;SDS011;43913;55.940;37.504;2023-03-03T10:01:12;2.20;;;1.70;;
58097;SDS011;43913;55.940;37.504;2023-03-03T10:06:44;3.17;;;2.40;;
58097;SDS011;43913;55.940;37.504;2023-03-03T10:20:53;2.63;;;1.83;;
58097;SDS011;43913;55.940;37.504;2023-03-03T10:23:37;4.22;;;1.77;;
58097;SDS011;43913;55.940;37.504;2023-03-03T10:33:56;6.00;;;2.47;;
58097;SDS011;43913;55.940;37.504;2023-03-03T10:36:36;4.72;;;1.92;;
58097;SDS011;43913;55.940;37.504;2023-03-03T10:39:24;3.92;;;1.73;;
58097;SDS011;43913;55.940;37.504;2023-03-03T10:56:19;5.40;;;2.38;;
58097;SDS011;43913;55.940;37.504;2023-03-03T11:01:57;3.83;;;2.20;;
58097;SDS011;43913;55.940;37.504;2023-03-03T11:04:30;9.50;;;2.30;;
58097;SDS011;43913;55.940;37.504;2023-03-03T11:10:13;4.38;;;2.30;;
58097;SDS011;43913;55.940;37.504;2023-03-03T11:12:49;4.53;;;2.47;;
58097;SDS011;43913;55.940;37.504;2023-03-03T11:18:02;5.28;;;2.15;;
58097;SDS011;43913;55.940;37.504;2023-03-03T11:31:48;3.92;;;1.73;;
58097;SDS011;43913;55.940;37.504;2023-03-03T11:37:07;2.15;;;1.80;;
58097;SDS011;43913;55.940;37.504;2023-03-03T11:39:38;1.77;;;1.50;;
58097;SDS011;43913;55.940;37.504;2023-03-03T11:44:50;2.90;;;1.63;;
58097;SDS011;43913;55.940;37.504;2023-03-03T11:47:33;4.68;;;2.42;;
58097;SDS011;43913;55.940;37.504;2023-03-03T11:50:21;3.25;;;1.45;;
58097;SDS011;43913;55.940;37.504;2023-03-03T11:53:26;2.30;;;1.42;;
58097;SDS011;43913;55.940;37.504;2023-03-03T11:55:43;4.45;;;1.45;;
58097;SDS011;43913;55.940;37.504;2023-03-03T11:58:21;2.08;;;1.40;;
58097;SDS011;43913;55.940;37.504;2023-03-03T12:03:43;4.10;;;2.33;;
58097;SDS011;43913;55.940;37.504;2023-03-03T12:06:21;2.92;;;2.60;;
58097;SDS011;43913;55.940;37.504;2023-03-03T12:27:42;1.95;;;1.67;;
58097;SDS011;43913;55.940;37.504;2023-03-03T12:35:42;1.55;;;1.23;;
58097;SDS011;43913;55.940;37.504;2023-03-03T12:43:54;1.85;;;1.20;;
58097;SDS011;43913;55.940;37.504;2023-03-03T12:49:05;3.47;;;1.77;;
58097;SDS011;43913;55.940;37.504;2023-03-03T12:56:59;2.50;;;2.30;;
58097;SDS011;43913;55.940;37.504;2023-03-03T13:10:47;4.40;;;1.80;;
58097;SDS011;43913;55.940;37.504;2023-03-03T13:14:04;3.10;;;1.58;;
58097;SDS011;43913;55.940;37.504;2023-03-03T13:16:23;4.80;;;1.92;;
58097;SDS011;43913;55.940;37.504;2023-03-03T13:18:58;3.88;;;1.90;;
58097;SDS011;43913;55.940;37.504;2023-03-03T13:21:36;4.30;;;1.80;;
58097;SDS011;43913;55.940;37.504;2023-03-03T13:24:12;4.65;;;1.90;;
58097;SDS011;43913;55.940;37.504;2023-03-03T13:29:42;3.65;;;1.80;;
58097;SDS011;43913;55.940;37.504;2023-03-03T13:32:16;2.95;;;1.58;;
58097;SDS011;43913;55.940;37.504;2023-03-03T13:34:48;2.97;;;1.83;;
58097;SDS011;43913;55.940;37.504;2023-03-03T13:37:21;3.88;;;1.60;;
58097;SDS011;43913;55.940;37.504;2023-03-03T13:39:54;2.47;;;1.38;;
58097;SDS011;43913;55.940;37.504;2023-03-03T13:42:37;3.42;;;1.85;;
58097;SDS011;43913;55.940;37.504;2023-03-03T13:48:00;3.65;;;1.70;;
58097;SDS011;43913;55.940;37.504;2023-03-03T13:55:44;3.05;;;2.08;;
58097;SDS011;43913;55.940;37.504;2023-03-03T13:58:22;2.72;;;1.63;;
58097;SDS011;43913;55.940;37.504;2023-03-03T14:01:36;4.88;;;2.10;;
58097;SDS011;43913;55.940;37.504;2023-03-03T14:06:54;1.75;;;1.50;;
58097;SDS011;43913;55.940;37.504;2023-03-03T14:22:52;3.20;;;1.70;;
58097;SDS011;43913;55.940;37.504;2023-03-03T14:25:19;3.85;;;2.33;;
58097;SDS011;43913;55.940;37.504;2023-03-03T14:30:27;4.53;;;2.25;;
58097;SDS011;43913;55.940;37.504;2023-03-03T14:40:33;4.07;;;2.15;;
58097;SDS011;43913;55.940;37.504;2023-03-03T14:43:04;3.08;;;2.10;;
58097;SDS011;43913;55.940;37.504;2023-03-03T14:45:43;5.85;;;2.33;;
58097;SDS011;43913;55.940;37.504;2023-03-03T14:50:42;4.05;;;2.10;;
58097;SDS011;43913;55.940;37.504;2023-03-03T14:55:46;3.92;;;2.50;;
58097;SDS011;43913;55.940;37.504;2023-03-03T15:01:02;4.88;;;2.13;;
58097;SDS011;43913;55.940;37.504;2023-03-03T15:03:34;3.47;;;2.00;;
58097;SDS011;43913;55.940;37.504;2023-03-03T15:06:07;4.95;;;2.33;;
58097;SDS011;43913;55.940;37.504;2023-03-03T15:08:36;4.50;;;2.00;;
58097;SDS011;43913;55.940;37.504;2023-03-03T15:11:37;4.10;;;2.33;;
58097;SDS011;43913;55.940;37.504;2023-03-03T15:14:14;6.45;;;2.20;;
58097;SDS011;43913;55.940;37.504;2023-03-03T15:16:41;4.43;;;2.28;;
58097;SDS011;43913;55.940;37.504;2023-03-03T15:22:23;11.75;;;5.20;;
58097;SDS011;43913;55.940;37.504;2023-03-03T15:25:09;9.77;;;4.10;;
58097;SDS011;43913;55.940;37.504;2023-03-03T15:27:41;8.27;;;3.08;;
58097;SDS011;43913;55.940;37.504;2023-03-03T15:35:22;6.63;;;3.42;;
58097;SDS011;43913;55.940;37.504;2023-03-03T15:41:10;4.88;;;2.72;;
58097;SDS011;43913;55.940;37.504;2023-03-03T15:46:24;3.75;;;2.47;;
58097;SDS011;43913;55.940;37.504;2023-03-03T15:57:20;6.88;;;2.78;;
58097;SDS011;43913;55.940;37.504;2023-03-03T16:00:13;4.63;;;2.75;;
58097;SDS011;43913;55.940;37.504;2023-03-03T16:02:53;4.72;;;2.40;;
58097;SDS011;43913;55.940;37.504;2023-03-03T16:05:22;3.60;;;2.53;;
58097;SDS011;43913;55.940;37.504;2023-03-03T16:10:40;5.55;;;2.33;;
58097;SDS011;43913;55.940;37.504;2023-03-03T16:19:19;4.53;;;2.67;;
58097;SDS011;43913;55.940;37.504;2023-03-03T16:21:53;6.97;;;2.40;;
58097;SDS011;43913;55.940;37.504;2023-03-03T16:38:44;3.00;;;2.42;;
58097;SDS011;43913;55.940;37.504;2023-03-03T16:41:18;8.27;;;3.65;;
58097;SDS011;43913;55.940;37.504;2023-03-03T16:46:58;4.43;;;2.33;;
58097;SDS011;43913;55.940;37.504;2023-03-03T16:49:58;5.80;;;3.00;;
58097;SDS011;43913;55.940;37.504;2023-03-03T16:55:46;4.18;;;2.47;;
58097;SDS011;43913;55.940;37.504;2023-03-03T16:58:32;6.75;;;2.95;;
58097;SDS011;43913;55.940;37.504;2023-03-03T17:10:18;5.25;;;2.72;;
58097;SDS011;43913;55.940;37.504;2023-03-03T17:15:12;8.07;;;3.40;;
58097;SDS011;43913;55.940;37.504;2023-03-03T17:20:31;6.95;;;2.90;;
58097;SDS011;43913;55.940;37.504;2023-03-03T17:46:40;6.25;;;3.22;;
58097;SDS011;43913;55.940;37.504;2023-03-03T17:52:02;4.40;;;3.08;;
58097;SDS011;43913;55.940;37.504;2023-03-03T18:08:27;4.90;;;3.28;;
58097;SDS011;43913;55.940;37.504;2023-03-03T18:14:10;5.22;;;4.05;;
58097;SDS011;43913;55.940;37.504;2023-03-03T18:25:16;5.18;;;3.30;;
58097;SDS011;43913;55.940;37.504;2023-03-03T18:27:46;8.25;;;3.60;;
58097;SDS011;43913;55.940;37.504;2023-03-03T18:33:29;6.30;;;2.97;;
58097;SDS011;43913;55.940;37.504;2023-03-03T18:36:33;6.45;;;2.90;;
58097;SDS011;43913;55.940;37.504;2023-03-03T18:38:58;4.38;;;2.58;;
58097;SDS011;43913;55.940;37.504;2023-03-03T18:41:29;4.60;;;2.47;;
58097;SDS011;43913;55.940;37.504;2023-03-03T18:44:22;5.13;;;3.15;;
58097;SDS011;43913;55.940;37.504;2023-03-03T18:46:56;7.10;;;3.45;;
58097;SDS011;43913;55.940;37.504;2023-03-03T18:55:39;4.63;;;2.80;;
58097;SDS011;43913;55.940;37.504;2023-03-03T19:00:49;4.93;;;3.33;;
58097;SDS011;43913;55.940;37.504;2023-03-03T19:03:28;4.55;;;3.28;;
58097;SDS011;43913;55.940;37.504;2023-03-03T19:05:58;5.93;;;3.22;;
58097;SDS011;43913;55.940;37.504;2023-03-03T19:08:42;6.70;;;3.28;;
58097;SDS011;43913;55.940;37.504;2023-03-03T19:16:42;4.05;;;2.53;;
58097;SDS011;43913;55.940;37.504;2023-03-03T19:19:09;5.40;;;2.53;;
58097;SDS011;43913;55.940;37.504;2023-03-03T19:21:37;4.63;;;2.70;;
58097;SDS011;43913;55.940;37.504;2023-03-03T19:24:37;3.80;;;3.00;;
58097;SDS011;43913;55.940;37.504;2023-03-03T19:27:04;4.30;;;2.47;;
58097;SDS011;43913;55.940;37.504;2023-03-03T19:34:41;3.75;;;2.35;;
58097;SDS011;43913;55.940;37.504;2023-03-03T19:43:41;3.72;;;2.30;;
58097;SDS011;43913;55.940;37.504;2023-03-03T19:52:02;3.05;;;1.83;;
58097;SDS011;43913;55.940;37.504;2023-03-03T19:54:37;5.03;;;2.60;;
58097;SDS011;43913;55.940;37.504;2023-03-03T19:57:34;4.28;;;2.17;;
58097;SDS011;43913;55.940;37.504;2023-03-03T20:00:07;4.45;;;2.42;;
58097;SDS011;43913;55.940;37.504;2023-03-03T20:08:32;3.40;;;1.85;;
58097;SDS011;43913;55.940;37.504;2023-03-03T20:11:03;3.08;;;2.05;;
58097;SDS011;43913;55.940;37.504;2023-03-03T20:13:35;5.93;;;2.92;;
58097;SDS011;43913;55.940;37.504;2023-03-03T20:39:06;5.93;;;3.38;;
58097;SDS011;43913;55.940;37.504;2023-03-03T20:46:25;6.57;;;2.30;;
58097;SDS011;43913;55.940;37.504;2023-03-03T20:51:39;6.25;;;2.40;;
58097;SDS011;43913;55.940;37.504;2023-03-03T20:59:44;5.65;;;2.60;;
58097;SDS011;43913;55.940;37.504;2023-03-03T21:02:21;4.53;;;2.60;;
58097;SDS011;43913;55.940;37.504;2023-03-03T21:08:00;7.60;;;2.50;;
58097;SDS011;43913;55.940;37.504;2023-03-03T21:10:30;4.72;;;2.90;;
58097;SDS011;43913;55.940;37.504;2023-03-03T21:16:02;4.35;;;2.67;;
58097;SDS011;43913;55.940;37.504;2023-03-03T21:18:34;6.93;;;2.92;;
58097;SDS011;43913;55.940;37.504;2023-03-03T21:21:00;4.32;;;2.70;;
58097;SDS011;43913;55.940;37.504;2023-03-03T21:23:26;5.13;;;2.30;;
58097;SDS011;43913;55.940;37.504;2023-03-03T21:25:52;6.80;;;3.55;;
58097;SDS011;43913;55.940;37.504;2023-03-03T21:28:26;3.70;;;2.65;;
58097;SDS011;43913;55.940;37.504;2023-03-03T21:33:38;4.82;;;3.42;;
58097;SDS011;43913;55.940;37.504;2023-03-03T21:36:23;5.57;;;2.53;;
58097;SDS011;43913;55.940;37.504;2023-03-03T21:39:17;6.40;;;2.55;;
58097;SDS011;43913;55.940;37.504;2023-03-03T21:41:58;4.32;;;2.53;;
58097;SDS011;43913;55.940;37.504;2023-03-03T21:44:52;5.53;;;2.80;;
58097;SDS011;43913;55.940;37.504;2023-03-03T21:47:18;5.20;;;2.72;;
58097;SDS011;43913;55.940;37.504;2023-03-03T21:49:46;3.83;;;2.78;;
58097;SDS011;43913;55.940;37.504;2023-03-03T21:52:14;4.60;;;2.30;;
58097;SDS011;43913;55.940;37.504;2023-03-03T21:54:41;5.55;;;2.63;;